Time;durP1;ratioP1;P1;durP2;ratioP2;P2;SDS_P1;SDS_P2;PMS_P1;PMS_P2;Temp;Humidity;BMP_temperature;BMP_pressure;BME280_temperature;BME280_humidity;BME280_pressure;Samples;Min_cycle;Max_cycle;Signal;HPM_P1;HPM_P2
2019/10/16 00:00:35;;;;;;;1.2;0.9;;;;;;;11.34;100;94935.61;;;;
2019/10/16 00:01:36;;;;;;;1.2;0.9;;;;;;;11.34;100;94935.61;;;;
2019/10/16 00:02:38;;;;;;;1.2;0.9;;;;;;;11.34;100;94935.61;;;;
2019/10/16 00:03:39;;;;;;;1;0.9;;;;;;;11.33;100;94944.65;;;;
2019/10/16 00:04:40;;;;;;;1;0.9;;;;;;;11.33;100;94944.65;;;;
2019/10/16 00:05:41;;;;;;;0.7;0.7;;;;;;;11.32;100;94935.46;;;;
2019/10/16 00:06:42;;;;;;;0.7;0.7;;;;;;;11.32;100;94935.46;;;;
2019/10/16 00:07:44;;;;;;;0.7;0.7;;;;;;;11.32;100;94935.46;;;;
2019/10/16 00:08:45;;;;;;;0.8;0.8;;;;;;;11.3;100;94946.51;;;;
2019/10/16 00:09:46;;;;;;;0.8;0.8;;;;;;;11.3;100;94946.51;;;;
2019/10/16 00:10:47;;;;;;;0.75;0.75;;;;;;;11.3;100;94952.06;;;;
2019/10/16 00:11:48;;;;;;;0.75;0.75;;;;;;;11.3;100;94952.06;;;;
2019/10/16 00:12:49;;;;;;;0.75;0.75;;;;;;;11.3;100;94952.06;;;;
2019/10/16 00:13:51;;;;;;;0.7;0.7;;;;;;;11.29;100;94955.3;;;;
2019/10/16 00:14:52;;;;;;;0.7;0.7;;;;;;;11.29;100;94955.3;;;;
2019/10/16 00:15:53;;;;;;;0.7;0.7;;;;;;;11.29;100;94955.3;;;;
2019/10/16 00:16:54;;;;;;;1.05;0.8;;;;;;;11.28;100;94954.58;;;;
2019/10/16 00:17:55;;;;;;;1.05;0.8;;;;;;;11.28;100;94954.58;;;;
2019/10/16 00:18:59;;;;;;;0.8;0.8;;;;;;;11.27;100;94959.71;;;;
2019/10/16 00:20:00;;;;;;;0.8;0.8;;;;;;;11.27;100;94959.71;;;;
2019/10/16 00:21:02;;;;;;;0.8;0.8;;;;;;;11.27;100;94959.71;;;;
2019/10/16 00:22:03;;;;;;;0.7;0.7;;;;;;;11.26;100;94957.12;;;;
2019/10/16 00:23:05;;;;;;;0.7;0.7;;;;;;;11.26;100;94957.12;;;;
2019/10/16 00:24:24;;;;;;;1.3;0.7;;;;;;;11.25;100;94969.53;;;;
2019/10/16 00:25:25;;;;;;;1.3;0.7;;;;;;;11.25;100;94969.53;;;;
2019/10/16 00:26:26;;;;;;;1.3;0.7;;;;;;;11.25;100;94969.53;;;;
2019/10/16 00:27:28;;;;;;;1.3;0.7;;;;;;;11.23;100;94964.79;;;;
2019/10/16 00:28:29;;;;;;;1.3;0.7;;;;;;;11.23;100;94964.79;;;;
2019/10/16 00:29:30;;;;;;;1.3;0.7;;;;;;;11.23;100;94964.79;;;;
2019/10/16 00:30:31;;;;;;;1.3;0.7;;;;;;;11.23;100;94964.79;;;;
2019/10/16 00:31:32;;;;;;;1.3;0.7;;;;;;;11.23;100;94964.79;;;;
2019/10/16 00:32:33;;;;;;;1.3;0.7;;;;;;;11.23;100;94964.79;;;;
2019/10/16 00:33:34;;;;;;;1.3;0.7;;;;;;;11.23;100;94964.79;;;;
2019/10/16 00:34:37;;;;;;;1.3;0.7;;;;;;;11.23;100;94964.79;;;;
2019/10/16 00:35:38;;;;;;;1.3;0.7;;;;;;;11.23;100;94964.79;;;;
2019/10/16 00:36:39;;;;;;;1.3;0.7;;;;;;;11.23;100;94964.79;;;;
2019/10/16 00:37:40;;;;;;;0.9;0.75;;;;;;;10.84;100;94974.84;;;;
2019/10/16 00:38:42;;;;;;;0.9;0.75;;;;;;;10.84;100;94974.84;;;;
2019/10/16 00:39:43;;;;;;;0.9;0.75;;;;;;;10.84;100;94974.84;;;;
2019/10/16 00:40:44;;;;;;;0.75;0.6;;;;;;;10.82;100;94969.69;;;;
2019/10/16 00:41:45;;;;;;;0.75;0.6;;;;;;;10.82;100;94969.69;;;;
2019/10/16 00:42:47;;;;;;;1.95;0.85;;;;;;;10.87;100;94973.81;;;;
2019/10/16 00:43:48;;;;;;;1.95;0.85;;;;;;;10.87;100;94973.81;;;;
2019/10/16 00:44:49;;;;;;;1.95;0.85;;;;;;;10.87;100;94973.81;;;;
2019/10/16 00:45:50;;;;;;;0.9;0.9;;;;;;;10.92;100;94979.81;;;;
2019/10/16 00:46:51;;;;;;;0.9;0.9;;;;;;;10.92;100;94979.81;;;;
2019/10/16 00:47:52;;;;;;;1.85;0.8;;;;;;;10.95;100;94980.14;;;;
2019/10/16 00:48:53;;;;;;;1.85;0.8;;;;;;;10.95;100;94980.14;;;;
2019/10/16 00:49:54;;;;;;;1.85;0.8;;;;;;;10.95;100;94980.14;;;;
2019/10/16 00:50:56;;;;;;;0.7;0.7;;;;;;;10.98;100;94981.96;;;;
2019/10/16 00:51:57;;;;;;;0.7;0.7;;;;;;;10.98;100;94981.96;;;;
2019/10/16 00:52:58;;;;;;;0.7;0.7;;;;;;;10.98;100;94981.96;;;;
2019/10/16 00:53:59;;;;;;;0.7;0.6;;;;;;;11.01;100;94979.32;;;;
2019/10/16 00:55:00;;;;;;;0.7;0.6;;;;;;;11.01;100;94979.32;;;;
2019/10/16 00:56:02;;;;;;;1.65;0.75;;;;;;;11.02;100;94989.45;;;;
2019/10/16 00:57:03;;;;;;;1.65;0.75;;;;;;;11.02;100;94989.45;;;;
2019/10/16 00:58:04;;;;;;;1.65;0.75;;;;;;;11.02;100;94989.45;;;;
2019/10/16 00:59:05;;;;;;;1.65;0.75;;;;;;;11.02;100;94989.45;;;;
2019/10/16 01:00:06;;;;;;;1.65;0.75;;;;;;;11.02;100;94989.45;;;;
2019/10/16 01:01:09;;;;;;;1.65;0.75;;;;;;;11.02;100;94989.45;;;;
2019/10/16 01:02:10;;;;;;;1.65;0.75;;;;;;;11.02;100;94989.45;;;;
2019/10/16 01:04:14;;;;;;;1.65;0.75;;;;;;;11.02;100;94989.45;;;;
2019/10/16 01:05:16;;;;;;;1.65;0.75;;;;;;;11.02;100;94989.45;;;;
2019/10/16 01:06:17;;;;;;;1.65;0.75;;;;;;;11.02;100;94989.45;;;;
2019/10/16 01:07:18;;;;;;;0.7;0.7;;;;;;;10.69;100;94971.45;;;;
2019/10/16 01:08:20;;;;;;;0.7;0.7;;;;;;;10.69;100;94971.45;;;;
2019/10/16 01:09:21;;;;;;;0.6;0.6;;;;;;;10.67;100;94974.41;;;;
2019/10/16 01:10:22;;;;;;;0.6;0.6;;;;;;;10.67;100;94974.41;;;;
2019/10/16 01:11:24;;;;;;;0.6;0.6;;;;;;;10.67;100;94974.41;;;;
2019/10/16 01:12:25;;;;;;;2.55;0.8;;;;;;;10.71;100;94971.09;;;;
2019/10/16 01:13:26;;;;;;;2.55;0.8;;;;;;;10.71;100;94971.09;;;;
2019/10/16 01:14:27;;;;;;;0.6;0.6;;;;;;;10.74;100;94979.11;;;;
2019/10/16 01:15:29;;;;;;;0.6;0.6;;;;;;;10.74;100;94979.11;;;;
2019/10/16 01:16:30;;;;;;;0.6;0.6;;;;;;;10.74;100;94979.11;;;;
2019/10/16 01:17:31;;;;;;;0.7;0.7;;;;;;;10.77;100;94989.45;;;;
2019/10/16 01:18:33;;;;;;;0.7;0.7;;;;;;;10.77;100;94989.45;;;;
2019/10/16 01:19:34;;;;;;;0.7;0.7;;;;;;;10.77;100;94989.45;;;;
2019/10/16 01:20:35;;;;;;;0.8;0.8;;;;;;;10.8;100;94982.2;;;;
2019/10/16 01:21:37;;;;;;;0.8;0.8;;;;;;;10.8;100;94982.2;;;;
2019/10/16 01:22:38;;;;;;;0.8;0.8;;;;;;;10.8;100;94982.2;;;;
2019/10/16 01:23:39;;;;;;;0.8;0.8;;;;;;;10.8;100;94982.2;;;;
2019/10/16 01:24:40;;;;;;;0.8;0.8;;;;;;;10.8;100;94982.2;;;;
2019/10/16 01:25:42;;;;;;;0.8;0.8;;;;;;;10.8;100;94982.2;;;;
2019/10/16 01:26:43;;;;;;;0.8;0.8;;;;;;;10.8;100;94982.2;;;;
2019/10/16 01:27:44;;;;;;;0.8;0.8;;;;;;;10.8;100;94982.2;;;;
2019/10/16 01:28:45;;;;;;;0.8;0.8;;;;;;;10.8;100;94982.2;;;;
2019/10/16 01:29:46;;;;;;;0.8;0.8;;;;;;;10.8;100;94982.2;;;;
2019/10/16 01:30:48;;;;;;;0.8;0.7;;;;;;;10.54;100;94986.47;;;;
2019/10/16 01:31:49;;;;;;;0.8;0.7;;;;;;;10.54;100;94986.47;;;;
2019/10/16 01:32:50;;;;;;;0.8;0.7;;;;;;;10.54;100;94986.47;;;;
2019/10/16 01:33:51;;;;;;;0.6;0.6;;;;;;;10.56;100;94992.83;;;;
2019/10/16 01:34:52;;;;;;;0.6;0.6;;;;;;;10.56;100;94992.83;;;;
2019/10/16 01:35:53;;;;;;;0.95;0.6;;;;;;;10.64;100;94998.78;;;;
2019/10/16 01:36:55;;;;;;;0.95;0.6;;;;;;;10.64;100;94998.78;;;;
2019/10/16 01:37:59;;;;;;;0.95;0.6;;;;;;;10.64;100;94998.78;;;;
2019/10/16 01:39:01;;;;;;;0.8;0.7;;;;;;;10.7;100;95000.52;;;;
2019/10/16 01:40:04;;;;;;;0.8;0.7;;;;;;;10.7;100;95000.52;;;;
2019/10/16 01:41:06;;;;;;;0.8;0.7;;;;;;;10.7;100;95000.52;;;;
2019/10/16 01:42:07;;;;;;;0.8;0.7;;;;;;;10.7;100;95000.52;;;;
2019/10/16 01:43:08;;;;;;;0.8;0.7;;;;;;;10.7;100;95000.52;;;;
2019/10/16 01:44:10;;;;;;;0.8;0.7;;;;;;;10.7;100;95000.52;;;;
2019/10/16 01:45:11;;;;;;;0.8;0.7;;;;;;;10.7;100;95000.52;;;;
2019/10/16 01:46:13;;;;;;;0.8;0.7;;;;;;;10.7;100;95000.52;;;;
2019/10/16 01:47:14;;;;;;;0.8;0.7;;;;;;;10.7;100;95000.52;;;;
2019/10/16 01:48:15;;;;;;;0.8;0.7;;;;;;;10.7;100;95000.52;;;;
2019/10/16 01:49:16;;;;;;;1.3;0.7;;;;;;;10.51;100;95015.17;;;;
2019/10/16 01:50:18;;;;;;;1.3;0.7;;;;;;;10.51;100;95015.17;;;;
2019/10/16 01:51:19;;;;;;;1.3;0.7;;;;;;;10.51;100;95015.17;;;;
2019/10/16 01:52:20;;;;;;;1.25;0.75;;;;;;;10.52;100;95017.35;;;;
2019/10/16 01:53:21;;;;;;;1.25;0.75;;;;;;;10.52;100;95017.35;;;;
2019/10/16 01:54:23;;;;;;;1.25;0.75;;;;;;;10.52;100;95017.35;;;;
2019/10/16 01:55:24;;;;;;;1.25;0.75;;;;;;;10.52;100;95017.35;;;;
2019/10/16 01:56:26;;;;;;;1.25;0.75;;;;;;;10.52;100;95017.35;;;;
2019/10/16 01:57:27;;;;;;;1.25;0.75;;;;;;;10.52;100;95017.35;;;;
2019/10/16 01:58:28;;;;;;;1.25;0.75;;;;;;;10.52;100;95017.35;;;;
2019/10/16 01:59:30;;;;;;;1.25;0.75;;;;;;;10.52;100;95017.35;;;;
2019/10/16 02:00:36;;;;;;;1.25;0.75;;;;;;;10.52;100;95017.35;;;;
2019/10/16 02:01:37;;;;;;;1.25;0.75;;;;;;;10.52;100;95017.35;;;;
2019/10/16 02:02:38;;;;;;;0.6;0.6;;;;;;;10.4;100;95033.69;;;;
2019/10/16 02:03:40;;;;;;;0.6;0.6;;;;;;;10.4;100;95033.69;;;;
2019/10/16 02:04:41;;;;;;;0.6;0.6;;;;;;;10.4;100;95033.69;;;;
2019/10/16 02:05:43;;;;;;;1;0.8;;;;;;;10.43;100;95030.52;;;;
2019/10/16 02:06:44;;;;;;;1;0.8;;;;;;;10.43;100;95030.52;;;;
2019/10/16 02:07:46;;;;;;;0.8;0.6;;;;;;;10.51;100;95032.3;;;;
2019/10/16 02:08:47;;;;;;;0.8;0.6;;;;;;;10.51;100;95032.3;;;;
2019/10/16 02:09:48;;;;;;;0.8;0.6;;;;;;;10.51;100;95032.3;;;;
2019/10/16 02:10:49;;;;;;;0.8;0.8;;;;;;;10.59;100;95035.15;;;;
2019/10/16 02:11:51;;;;;;;0.8;0.8;;;;;;;10.59;100;95035.15;;;;
2019/10/16 02:12:52;;;;;;;0.8;0.8;;;;;;;10.59;100;95035.15;;;;
2019/10/16 02:13:53;;;;;;;0.8;0.8;;;;;;;10.59;100;95035.15;;;;
2019/10/16 02:14:55;;;;;;;0.8;0.8;;;;;;;10.59;100;95035.15;;;;
2019/10/16 02:15:56;;;;;;;0.8;0.8;;;;;;;10.59;100;95035.15;;;;
2019/10/16 02:16:57;;;;;;;0.8;0.8;;;;;;;10.59;100;95035.15;;;;
2019/10/16 02:17:58;;;;;;;0.8;0.8;;;;;;;10.59;100;95035.15;;;;
2019/10/16 02:19:00;;;;;;;0.8;0.8;;;;;;;10.59;100;95035.15;;;;
2019/10/16 02:20:01;;;;;;;0.8;0.8;;;;;;;10.59;100;95035.15;;;;
2019/10/16 02:21:02;;;;;;;0.8;0.8;;;;;;;10.59;100;95035.15;;;;
2019/10/16 02:22:03;;;;;;;0.8;0.8;;;;;;;10.59;100;95035.15;;;;
2019/10/16 02:23:04;;;;;;;0.8;0.8;;;;;;;10.59;100;95035.15;;;;
2019/10/16 02:24:06;;;;;;;0.8;0.8;;;;;;;10.59;100;95035.15;;;;
2019/10/16 02:25:07;;;;;;;0.8;0.8;;;;;;;10.59;100;95035.15;;;;
2019/10/16 02:26:08;;;;;;;0.8;0.8;;;;;;;10.59;100;95035.15;;;;
2019/10/16 02:27:09;;;;;;;0.8;0.8;;;;;;;10.59;100;95035.15;;;;
2019/10/16 02:28:11;;;;;;;0.8;0.8;;;;;;;10.59;100;95035.15;;;;
2019/10/16 02:29:12;;;;;;;0.8;0.8;;;;;;;10.59;100;95035.15;;;;
2019/10/16 02:30:13;;;;;;;0.8;0.8;;;;;;;10.59;100;95035.15;;;;
2019/10/16 02:31:14;;;;;;;0.8;0.8;;;;;;;10.59;100;95035.15;;;;
2019/10/16 02:32:15;;;;;;;0.8;0.8;;;;;;;10.59;100;95035.15;;;;
2019/10/16 02:33:17;;;;;;;0.8;0.8;;;;;;;10.59;100;95035.15;;;;
2019/10/16 02:34:18;;;;;;;0.8;0.8;;;;;;;10.59;100;95035.15;;;;
2019/10/16 02:35:19;;;;;;;1;1;;;;;;;10.48;100;95050.86;;;;
2019/10/16 02:36:20;;;;;;;1;1;;;;;;;10.48;100;95050.86;;;;
2019/10/16 02:37:21;;;;;;;2.15;1;;;;;;;10.48;100;95043.59;;;;
2019/10/16 02:38:22;;;;;;;2.15;1;;;;;;;10.48;100;95043.59;;;;
2019/10/16 02:39:24;;;;;;;2.15;1;;;;;;;10.48;100;95043.59;;;;
2019/10/16 02:40:25;;;;;;;2.15;1;;;;;;;10.48;100;95043.59;;;;
2019/10/16 02:41:26;;;;;;;2.15;1;;;;;;;10.48;100;95043.59;;;;
2019/10/16 02:42:27;;;;;;;2.15;1;;;;;;;10.48;100;95043.59;;;;
2019/10/16 02:43:28;;;;;;;2.15;1;;;;;;;10.48;100;95043.59;;;;
2019/10/16 02:44:29;;;;;;;2.15;1;;;;;;;10.48;100;95043.59;;;;
2019/10/16 02:45:31;;;;;;;2.15;1;;;;;;;10.48;100;95043.59;;;;
2019/10/16 02:46:34;;;;;;;2.15;1;;;;;;;10.48;100;95043.59;;;;
2019/10/16 02:47:35;;;;;;;2.15;1;;;;;;;10.48;100;95043.59;;;;
2019/10/16 02:48:37;;;;;;;2.35;1.1;;;;;;;10.31;100;95048.1;;;;
2019/10/16 02:49:39;;;;;;;2.35;1.1;;;;;;;10.31;100;95048.1;;;;
2019/10/16 02:50:40;;;;;;;1.7;1.2;;;;;;;10.33;100;95045.15;;;;
2019/10/16 02:51:42;;;;;;;1.7;1.2;;;;;;;10.33;100;95045.15;;;;
2019/10/16 02:52:43;;;;;;;1.7;1.2;;;;;;;10.33;100;95045.15;;;;
2019/10/16 02:53:44;;;;;;;1.7;1.2;;;;;;;10.33;100;95045.15;;;;
2019/10/16 02:54:45;;;;;;;1.7;1.2;;;;;;;10.33;100;95045.15;;;;
2019/10/16 02:55:47;;;;;;;1.7;1.2;;;;;;;10.33;100;95045.15;;;;
2019/10/16 02:56:48;;;;;;;1.7;1.2;;;;;;;10.33;100;95045.15;;;;
2019/10/16 02:57:49;;;;;;;1.7;1.2;;;;;;;10.33;100;95045.15;;;;
2019/10/16 02:58:50;;;;;;;1.7;1.2;;;;;;;10.33;100;95045.15;;;;
2019/10/16 02:59:51;;;;;;;1.7;1.2;;;;;;;10.33;100;95045.15;;;;
2019/10/16 03:00:52;;;;;;;1.7;1.2;;;;;;;10.33;100;95045.15;;;;
2019/10/16 03:01:53;;;;;;;1.65;1.2;;;;;;;10.2;100;95059.36;;;;
2019/10/16 03:02:55;;;;;;;1.65;1.2;;;;;;;10.2;100;95059.36;;;;
2019/10/16 03:03:56;;;;;;;1;0.9;;;;;;;10.23;100;95063.75;;;;
2019/10/16 03:04:57;;;;;;;1;0.9;;;;;;;10.23;100;95063.75;;;;
2019/10/16 03:05:58;;;;;;;1;0.9;;;;;;;10.23;100;95063.75;;;;
2019/10/16 03:06:59;;;;;;;1;0.9;;;;;;;10.23;100;95063.75;;;;
2019/10/16 03:08:00;;;;;;;1;0.9;;;;;;;10.23;100;95063.75;;;;
2019/10/16 03:09:02;;;;;;;1;0.9;;;;;;;10.23;100;95063.75;;;;
2019/10/16 03:10:03;;;;;;;1;0.9;;;;;;;10.23;100;95063.75;;;;
2019/10/16 03:11:11;;;;;;;1;0.9;;;;;;;10.23;100;95063.75;;;;
2019/10/16 03:12:13;;;;;;;1;0.9;;;;;;;10.23;100;95063.75;;;;
2019/10/16 03:13:14;;;;;;;1;0.9;;;;;;;10.23;100;95063.75;;;;
2019/10/16 03:14:15;;;;;;;1;0.9;;;;;;;10.23;100;95063.75;;;;
2019/10/16 03:15:16;;;;;;;1.9;1.25;;;;;;;10.13;100;95071.2;;;;
2019/10/16 03:16:17;;;;;;;1.9;1.25;;;;;;;10.13;100;95071.2;;;;
2019/10/16 03:17:18;;;;;;;2.55;1.2;;;;;;;10.17;100;95077.76;;;;
2019/10/16 03:18:19;;;;;;;2.55;1.2;;;;;;;10.17;100;95077.76;;;;
2019/10/16 03:19:21;;;;;;;2.55;1.2;;;;;;;10.17;100;95077.76;;;;
2019/10/16 03:20:22;;;;;;;2.55;1.2;;;;;;;10.17;100;95077.76;;;;
2019/10/16 03:22:04;;;;;;;2.55;1.2;;;;;;;10.17;100;95077.76;;;;
2019/10/16 03:28:23;;;;;;;2.2;1.3;;;;;;;10.07;100;95063.22;;;;
2019/10/16 03:37:38;;;;;;;2.7;1.2;;;;;;;10.08;100;95061.63;;;;
2019/10/16 03:38:48;;;;;;;2.7;1.2;;;;;;;10.08;100;95061.63;;;;
2019/10/16 03:40:41;;;;;;;2.7;1.2;;;;;;;10.08;100;95061.63;;;;
2019/10/16 03:41:44;;;;;;;2.8;1.3;;;;;;;9.9;100;95070.79;;;;
2019/10/16 03:44:48;;;;;;;1.7;1.1;;;;;;;9.88;100;95072.8;;;;
2019/10/16 03:47:17;;;;;;;1.7;1.1;;;;;;;9.88;100;95072.8;;;;
2019/10/16 03:49:35;;;;;;;1.7;1.1;;;;;;;9.88;100;95072.8;;;;
2019/10/16 03:58:34;;;;;;;2.25;1.5;;;;;;;9.6;100;95090.76;;;;
2019/10/16 03:59:50;;;;;;;2.25;1.5;;;;;;;9.6;100;95090.76;;;;
2019/10/16 04:00:51;;;;;;;2.25;1.5;;;;;;;9.6;100;95090.76;;;;
2019/10/16 04:01:53;;;;;;;2.25;1.5;;;;;;;9.6;100;95090.76;;;;
2019/10/16 04:02:56;;;;;;;2.25;1.5;;;;;;;9.6;100;95090.76;;;;
2019/10/16 04:03:59;;;;;;;2.25;1.5;;;;;;;9.6;100;95090.76;;;;
2019/10/16 04:05:00;;;;;;;1.45;1.2;;;;;;;9.37;100;95098.71;;;;
2019/10/16 04:06:02;;;;;;;1.45;1.2;;;;;;;9.37;100;95098.71;;;;
2019/10/16 04:07:05;;;;;;;1.45;1.2;;;;;;;9.37;100;95098.71;;;;
2019/10/16 04:14:53;;;;;;;1.45;1.2;;;;;;;9.37;100;95098.71;;;;
2019/10/16 04:16:04;;;;;;;2.2;1.2;;;;;;;9.16;100;95106.1;;;;
2019/10/16 04:17:07;;;;;;;2.2;1.2;;;;;;;9.16;100;95106.1;;;;
2019/10/16 04:18:19;;;;;;;2.15;1.4;;;;;;;9.18;100;95105.77;;;;
2019/10/16 04:19:24;;;;;;;2.15;1.4;;;;;;;9.18;100;95105.77;;;;
2019/10/16 04:20:34;;;;;;;2.15;1.4;;;;;;;9.18;100;95105.77;;;;
2019/10/16 04:21:36;;;;;;;2.15;1.4;;;;;;;9.18;100;95105.77;;;;
2019/10/16 04:22:37;;;;;;;2.15;1.4;;;;;;;9.18;100;95105.77;;;;
2019/10/16 04:23:38;;;;;;;2.15;1.4;;;;;;;9.18;100;95105.77;;;;
2019/10/16 04:24:39;;;;;;;2.15;1.4;;;;;;;9.18;100;95105.77;;;;
2019/10/16 04:25:41;;;;;;;2.15;1.4;;;;;;;9.18;100;95105.77;;;;
2019/10/16 04:26:42;;;;;;;2.15;1.4;;;;;;;9.18;100;95105.77;;;;
2019/10/16 04:27:43;;;;;;;2.15;1.4;;;;;;;9.18;100;95105.77;;;;
2019/10/16 04:28:47;;;;;;;2.45;1.2;;;;;;;9.07;100;95107.9;;;;
2019/10/16 04:29:48;;;;;;;2.45;1.2;;;;;;;9.07;100;95107.9;;;;
2019/10/16 04:30:49;;;;;;;2.45;1.2;;;;;;;9.07;100;95107.9;;;;
2019/10/16 04:31:51;;;;;;;2.45;1.3;;;;;;;9.11;100;95120.79;;;;
2019/10/16 04:32:52;;;;;;;2.45;1.3;;;;;;;9.11;100;95120.79;;;;
2019/10/16 04:33:53;;;;;;;2.45;1.3;;;;;;;9.11;100;95120.79;;;;
2019/10/16 04:34:54;;;;;;;2.45;1.3;;;;;;;9.11;100;95120.79;;;;
2019/10/16 04:35:55;;;;;;;2.45;1.3;;;;;;;9.11;100;95120.79;;;;
2019/10/16 04:36:57;;;;;;;2.45;1.3;;;;;;;9.11;100;95120.79;;;;
2019/10/16 04:37:58;;;;;;;2.45;1.3;;;;;;;9.11;100;95120.79;;;;
2019/10/16 04:38:59;;;;;;;2.45;1.3;;;;;;;9.11;100;95120.79;;;;
2019/10/16 04:40:01;;;;;;;2.45;1.3;;;;;;;9.11;100;95120.79;;;;
2019/10/16 04:41:04;;;;;;;2.45;1.3;;;;;;;9.11;100;95120.79;;;;
2019/10/16 04:42:05;;;;;;;2.3;1.3;;;;;;;9.03;100;95126.93;;;;
2019/10/16 04:43:06;;;;;;;2.3;1.3;;;;;;;9.03;100;95126.93;;;;
2019/10/16 04:44:08;;;;;;;2.3;1.3;;;;;;;9.03;100;95126.93;;;;
2019/10/16 04:45:09;;;;;;;1.5;1.2;;;;;;;9.05;100;95133.31;;;;
2019/10/16 04:46:10;;;;;;;1.5;1.2;;;;;;;9.05;100;95133.31;;;;
2019/10/16 04:47:11;;;;;;;1.5;1.2;;;;;;;9.05;100;95133.31;;;;
2019/10/16 04:48:13;;;;;;;1.5;1.2;;;;;;;9.05;100;95133.31;;;;
2019/10/16 04:49:14;;;;;;;1.5;1.2;;;;;;;9.05;100;95133.31;;;;
2019/10/16 04:50:15;;;;;;;1.5;1.2;;;;;;;9.05;100;95133.31;;;;
2019/10/16 04:51:16;;;;;;;1.5;1.2;;;;;;;9.05;100;95133.31;;;;
2019/10/16 04:52:17;;;;;;;1.5;1.2;;;;;;;9.05;100;95133.31;;;;
2019/10/16 04:53:18;;;;;;;1.5;1.2;;;;;;;9.05;100;95133.31;;;;
2019/10/16 04:54:19;;;;;;;1.5;1.2;;;;;;;9.05;100;95133.31;;;;
2019/10/16 04:55:35;;;;;;;3.3;1.5;;;;;;;8.82;100;95128.78;;;;
2019/10/16 04:56:36;;;;;;;3.3;1.5;;;;;;;8.82;100;95128.78;;;;
2019/10/16 04:57:37;;;;;;;3.3;1.5;;;;;;;8.82;100;95128.78;;;;
2019/10/16 04:58:40;;;;;;;3.3;1.5;;;;;;;8.82;100;95128.78;;;;
2019/10/16 04:59:41;;;;;;;3.3;1.5;;;;;;;8.82;100;95128.78;;;;
2019/10/16 05:00:42;;;;;;;3.3;1.5;;;;;;;8.82;100;95128.78;;;;
2019/10/16 05:01:43;;;;;;;3.3;1.5;;;;;;;8.82;100;95128.78;;;;
2019/10/16 05:02:44;;;;;;;3.3;1.5;;;;;;;8.82;100;95128.78;;;;
2019/10/16 05:03:45;;;;;;;3.3;1.5;;;;;;;8.82;100;95128.78;;;;
2019/10/16 05:04:46;;;;;;;3.3;1.5;;;;;;;8.82;100;95128.78;;;;
2019/10/16 05:05:48;;;;;;;2.25;1.5;;;;;;;8.6;100;95135.19;;;;
2019/10/16 05:06:49;;;;;;;2.25;1.5;;;;;;;8.6;100;95135.19;;;;
2019/10/16 05:07:50;;;;;;;2.25;1.5;;;;;;;8.6;100;95135.19;;;;
2019/10/16 05:08:51;;;;;;;2.25;1.5;;;;;;;8.6;100;95135.19;;;;
2019/10/16 05:09:52;;;;;;;2.25;1.5;;;;;;;8.6;100;95135.19;;;;
2019/10/16 05:10:53;;;;;;;2.25;1.5;;;;;;;8.6;100;95135.19;;;;
2019/10/16 05:11:54;;;;;;;2.25;1.5;;;;;;;8.6;100;95135.19;;;;
2019/10/16 05:12:56;;;;;;;2.25;1.5;;;;;;;8.6;100;95135.19;;;;
2019/10/16 05:13:57;;;;;;;2.25;1.5;;;;;;;8.6;100;95135.19;;;;
2019/10/16 05:14:58;;;;;;;2.25;1.5;;;;;;;8.6;100;95135.19;;;;
2019/10/16 05:15:59;;;;;;;2.25;1.5;;;;;;;8.6;100;95135.19;;;;
2019/10/16 05:17:00;;;;;;;3.8;1.7;;;;;;;8.41;100;95145.18;;;;
2019/10/16 05:18:01;;;;;;;3.8;1.7;;;;;;;8.41;100;95145.18;;;;
2019/10/16 05:19:02;;;;;;;3.8;1.7;;;;;;;8.41;100;95145.18;;;;
2019/10/16 05:20:04;;;;;;;3.8;1.7;;;;;;;8.41;100;95145.18;;;;
2019/10/16 05:21:05;;;;;;;3.8;1.7;;;;;;;8.41;100;95145.18;;;;
2019/10/16 05:22:06;;;;;;;3.8;1.7;;;;;;;8.41;100;95145.18;;;;
2019/10/16 05:23:07;;;;;;;3.8;1.7;;;;;;;8.41;100;95145.18;;;;
2019/10/16 05:24:09;;;;;;;3.8;1.7;;;;;;;8.41;100;95145.18;;;;
2019/10/16 05:25:10;;;;;;;3.8;1.7;;;;;;;8.41;100;95145.18;;;;
2019/10/16 05:26:11;;;;;;;3.8;1.7;;;;;;;8.41;100;95145.18;;;;
2019/10/16 05:27:12;;;;;;;4.25;1.9;;;;;;;8.33;100;95157.15;;;;
2019/10/16 05:28:13;;;;;;;4.25;1.9;;;;;;;8.33;100;95157.15;;;;
2019/10/16 05:29:14;;;;;;;4.25;1.9;;;;;;;8.33;100;95157.15;;;;
2019/10/16 05:30:15;;;;;;;4.25;1.9;;;;;;;8.33;100;95157.15;;;;
2019/10/16 05:31:17;;;;;;;4.25;1.9;;;;;;;8.33;100;95157.15;;;;
2019/10/16 05:32:18;;;;;;;4.25;1.9;;;;;;;8.33;100;95157.15;;;;
2019/10/16 05:33:19;;;;;;;4.25;1.9;;;;;;;8.33;100;95157.15;;;;
2019/10/16 05:34:20;;;;;;;4.25;1.9;;;;;;;8.33;100;95157.15;;;;
2019/10/16 05:35:21;;;;;;;4.25;1.9;;;;;;;8.33;100;95157.15;;;;
2019/10/16 05:36:22;;;;;;;4.25;1.9;;;;;;;8.33;100;95157.15;;;;
2019/10/16 05:37:23;;;;;;;4.25;1.9;;;;;;;8.33;100;95157.15;;;;
2019/10/16 05:38:24;;;;;;;5.599999;1.6;;;;;;;8.23;100;95162.64;;;;
2019/10/16 05:39:26;;;;;;;5.599999;1.6;;;;;;;8.23;100;95162.64;;;;
2019/10/16 05:40:27;;;;;;;5.599999;1.6;;;;;;;8.23;100;95162.64;;;;
2019/10/16 05:41:28;;;;;;;5.599999;1.6;;;;;;;8.23;100;95162.64;;;;
2019/10/16 05:42:29;;;;;;;5.599999;1.6;;;;;;;8.23;100;95162.64;;;;
2019/10/16 05:43:30;;;;;;;5.599999;1.6;;;;;;;8.23;100;95162.64;;;;
2019/10/16 05:44:31;;;;;;;5.599999;1.6;;;;;;;8.23;100;95162.64;;;;
2019/10/16 05:45:32;;;;;;;5.599999;1.6;;;;;;;8.23;100;95162.64;;;;
2019/10/16 05:46:33;;;;;;;5.599999;1.6;;;;;;;8.23;100;95162.64;;;;
2019/10/16 05:47:35;;;;;;;5.599999;1.6;;;;;;;8.23;100;95162.64;;;;
2019/10/16 05:48:36;;;;;;;4.3;1.8;;;;;;;8.2;100;95176.64;;;;
2019/10/16 05:49:37;;;;;;;4.3;1.8;;;;;;;8.2;100;95176.64;;;;
2019/10/16 05:50:38;;;;;;;4.3;1.8;;;;;;;8.2;100;95176.64;;;;
2019/10/16 05:51:39;;;;;;;4.3;1.8;;;;;;;8.2;100;95176.64;;;;
2019/10/16 05:52:40;;;;;;;4.3;1.8;;;;;;;8.2;100;95176.64;;;;
2019/10/16 05:53:41;;;;;;;4.3;1.8;;;;;;;8.2;100;95176.64;;;;
2019/10/16 05:54:42;;;;;;;4.3;1.8;;;;;;;8.2;100;95176.64;;;;
2019/10/16 05:55:44;;;;;;;4.3;1.8;;;;;;;8.2;100;95176.64;;;;
2019/10/16 05:56:45;;;;;;;4.3;1.8;;;;;;;8.2;100;95176.64;;;;
2019/10/16 05:57:46;;;;;;;4.3;1.8;;;;;;;8.2;100;95176.64;;;;
2019/10/16 05:58:47;;;;;;;4.899999;1.7;;;;;;;8.16;100;95175.44;;;;
2019/10/16 05:59:48;;;;;;;4.899999;1.7;;;;;;;8.16;100;95175.44;;;;
2019/10/16 06:00:49;;;;;;;4.899999;1.7;;;;;;;8.16;100;95175.44;;;;
2019/10/16 06:01:50;;;;;;;4.899999;1.7;;;;;;;8.16;100;95175.44;;;;
2019/10/16 06:02:51;;;;;;;4.899999;1.7;;;;;;;8.16;100;95175.44;;;;
2019/10/16 06:03:53;;;;;;;4.899999;1.7;;;;;;;8.16;100;95175.44;;;;
2019/10/16 06:04:54;;;;;;;4.899999;1.7;;;;;;;8.16;100;95175.44;;;;
2019/10/16 06:05:55;;;;;;;4.899999;1.7;;;;;;;8.16;100;95175.44;;;;
2019/10/16 06:06:56;;;;;;;4.899999;1.7;;;;;;;8.16;100;95175.44;;;;
2019/10/16 06:07:57;;;;;;;4.899999;1.7;;;;;;;8.16;100;95175.44;;;;
2019/10/16 06:08:58;;;;;;;4.899999;1.7;;;;;;;8.16;100;95175.44;;;;
2019/10/16 06:09:59;;;;;;;5.550001;1.8;;;;;;;8.23;100;95195.42;;;;
2019/10/16 06:11:01;;;;;;;5.550001;1.8;;;;;;;8.23;100;95195.42;;;;
2019/10/16 06:12:02;;;;;;;5.550001;1.8;;;;;;;8.23;100;95195.42;;;;
2019/10/16 06:13:03;;;;;;;5.550001;1.8;;;;;;;8.23;100;95195.42;;;;
2019/10/16 06:14:04;;;;;;;5.550001;1.8;;;;;;;8.23;100;95195.42;;;;
2019/10/16 06:15:05;;;;;;;5.550001;1.8;;;;;;;8.23;100;95195.42;;;;
2019/10/16 06:16:07;;;;;;;5.550001;1.8;;;;;;;8.23;100;95195.42;;;;
2019/10/16 06:17:08;;;;;;;5.550001;1.8;;;;;;;8.23;100;95195.42;;;;
2019/10/16 06:18:09;;;;;;;5.550001;1.8;;;;;;;8.23;100;95195.42;;;;
2019/10/16 06:19:10;;;;;;;5.550001;1.8;;;;;;;8.23;100;95195.42;;;;
2019/10/16 06:20:11;;;;;;;6.599999;1.5;;;;;;;8.4;100;95198.67;;;;
2019/10/16 06:21:12;;;;;;;6.599999;1.5;;;;;;;8.4;100;95198.67;;;;
2019/10/16 06:22:14;;;;;;;6.599999;1.5;;;;;;;8.4;100;95198.67;;;;
2019/10/16 06:23:15;;;;;;;6.599999;1.5;;;;;;;8.4;100;95198.67;;;;
2019/10/16 06:24:16;;;;;;;6.599999;1.5;;;;;;;8.4;100;95198.67;;;;
2019/10/16 06:25:17;;;;;;;6.599999;1.5;;;;;;;8.4;100;95198.67;;;;
2019/10/16 06:26:18;;;;;;;6.599999;1.5;;;;;;;8.4;100;95198.67;;;;
2019/10/16 06:27:20;;;;;;;6.599999;1.5;;;;;;;8.4;100;95198.67;;;;
2019/10/16 06:28:21;;;;;;;6.599999;1.5;;;;;;;8.4;100;95198.67;;;;
2019/10/16 06:29:22;;;;;;;6.599999;1.5;;;;;;;8.4;100;95198.67;;;;
2019/10/16 06:30:23;;;;;;;6.599999;1.5;;;;;;;8.4;100;95198.67;;;;
2019/10/16 06:31:24;;;;;;;3.9;1.6;;;;;;;8.71;100;95212.48;;;;
2019/10/16 06:32:25;;;;;;;3.9;1.6;;;;;;;8.71;100;95212.48;;;;
2019/10/16 06:33:26;;;;;;;3.9;1.6;;;;;;;8.71;100;95212.48;;;;
2019/10/16 06:34:28;;;;;;;3.9;1.6;;;;;;;8.71;100;95212.48;;;;
2019/10/16 06:35:29;;;;;;;3.9;1.6;;;;;;;8.71;100;95212.48;;;;
2019/10/16 06:36:30;;;;;;;3.9;1.6;;;;;;;8.71;100;95212.48;;;;
2019/10/16 06:37:31;;;;;;;3.9;1.6;;;;;;;8.71;100;95212.48;;;;
2019/10/16 06:38:32;;;;;;;3.9;1.6;;;;;;;8.71;100;95212.48;;;;
2019/10/16 06:39:33;;;;;;;3.9;1.6;;;;;;;8.71;100;95212.48;;;;
2019/10/16 06:40:34;;;;;;;3.9;1.6;;;;;;;8.71;100;95212.48;;;;
2019/10/16 06:41:36;;;;;;;3.7;1.5;;;;;;;8.79;100;95218.91;;;;
2019/10/16 06:42:37;;;;;;;3.7;1.5;;;;;;;8.79;100;95218.91;;;;
2019/10/16 06:43:38;;;;;;;3.7;1.5;;;;;;;8.79;100;95218.91;;;;
2019/10/16 06:44:39;;;;;;;3.3;1.65;;;;;;;8.86;100;95222.34;;;;
2019/10/16 06:45:40;;;;;;;3.3;1.65;;;;;;;8.86;100;95222.34;;;;
2019/10/16 06:46:41;;;;;;;3.3;1.65;;;;;;;8.86;100;95222.34;;;;
2019/10/16 06:47:42;;;;;;;3.3;1.65;;;;;;;8.86;100;95222.34;;;;
2019/10/16 06:48:43;;;;;;;3.3;1.65;;;;;;;8.86;100;95222.34;;;;
2019/10/16 06:49:44;;;;;;;3.3;1.65;;;;;;;8.86;100;95222.34;;;;
2019/10/16 06:50:46;;;;;;;3.3;1.65;;;;;;;8.86;100;95222.34;;;;
2019/10/16 06:51:47;;;;;;;3.3;1.65;;;;;;;8.86;100;95222.34;;;;
2019/10/16 06:52:48;;;;;;;3.3;1.65;;;;;;;8.86;100;95222.34;;;;
2019/10/16 06:53:49;;;;;;;3.3;1.65;;;;;;;8.86;100;95222.34;;;;
2019/10/16 06:54:50;;;;;;;5.750001;2;;;;;;;9.04;100;95241.16;;;;
2019/10/16 06:55:51;;;;;;;5.750001;2;;;;;;;9.04;100;95241.16;;;;
2019/10/16 06:56:52;;;;;;;5.750001;2;;;;;;;9.04;100;95241.16;;;;
2019/10/16 06:57:54;;;;;;;5.750001;2;;;;;;;9.04;100;95241.16;;;;
2019/10/16 06:58:55;;;;;;;5.750001;2;;;;;;;9.04;100;95241.16;;;;
2019/10/16 06:59:56;;;;;;;5.750001;2;;;;;;;9.04;100;95241.16;;;;
2019/10/16 07:00:58;;;;;;;5.750001;2;;;;;;;9.04;100;95241.16;;;;